sensor_id;sensor_type;location;lat;lon;timestamp;temperature;humidity
52495;DHT22;38405;53.212;5.660;2022-12-24T00:01:05;6.60;99.90
52495;DHT22;38405;53.212;5.660;2022-12-24T00:03:31;6.60;99.90
52495;DHT22;38405;53.212;5.660;2022-12-24T00:05:57;6.60;99.90
52495;DHT22;38405;53.212;5.660;2022-12-24T00:08:23;6.60;99.90
52495;DHT22;38405;53.212;5.660;2022-12-24T00:10:52;6.70;99.90
52495;DHT22;38405;53.212;5.660;2022-12-24T00:13:19;6.60;99.90
52495;DHT22;38405;53.212;5.660;2022-12-24T00:15:45;6.60;99.90
52495;DHT22;38405;53.212;5.660;2022-12-24T00:18:10;6.60;99.90
52495;DHT22;38405;53.212;5.660;2022-12-24T00:20:36;6.60;99.90
52495;DHT22;38405;53.212;5.660;2022-12-24T00:23:02;6.60;99.90
52495;DHT22;38405;53.212;5.660;2022-12-24T00:25:27;6.70;99.90
52495;DHT22;38405;53.212;5.660;2022-12-24T00:27:53;6.70;99.90
52495;DHT22;38405;53.212;5.660;2022-12-24T00:30:18;6.60;99.90
52495;DHT22;38405;53.212;5.660;2022-12-24T00:32:44;7.00;99.90
52495;DHT22;38405;53.212;5.660;2022-12-24T00:35:10;6.70;99.90
52495;DHT22;38405;53.212;5.660;2022-12-24T00:37:35;6.80;99.90
52495;DHT22;38405;53.212;5.660;2022-12-24T00:40:01;6.60;99.90
52495;DHT22;38405;53.212;5.660;2022-12-24T00:42:26;6.60;99.90
52495;DHT22;38405;53.212;5.660;2022-12-24T00:44:52;5.90;99.90
52495;DHT22;38405;53.212;5.660;2022-12-24T00:47:18;6.60;99.90
52495;DHT22;38405;53.212;5.660;2022-12-24T00:49:43;6.60;99.90
52495;DHT22;38405;53.212;5.660;2022-12-24T00:52:09;6.60;99.90
52495;DHT22;38405;53.212;5.660;2022-12-24T00:54:35;6.60;99.90
52495;DHT22;38405;53.212;5.660;2022-12-24T00:57:01;6.60;99.90
52495;DHT22;38405;53.212;5.660;2022-12-24T00:59:26;6.60;99.90
52495;DHT22;38405;53.212;5.660;2022-12-24T01:01:52;6.60;99.90
52495;DHT22;38405;53.212;5.660;2022-12-24T01:04:17;6.60;99.90
52495;DHT22;38405;53.212;5.660;2022-12-24T01:07:02;6.60;99.90
52495;DHT22;38405;53.212;5.660;2022-12-24T01:09:27;6.60;99.90
52495;DHT22;38405;53.212;5.660;2022-12-24T01:11:53;6.60;99.90
52495;DHT22;38405;53.212;5.660;2022-12-24T01:14:18;6.60;99.90
52495;DHT22;38405;53.212;5.660;2022-12-24T01:16:45;6.60;99.90
52495;DHT22;38405;53.212;5.660;2022-12-24T01:19:10;6.60;99.90
52495;DHT22;38405;53.212;5.660;2022-12-24T01:21:36;6.60;99.90
52495;DHT22;38405;53.212;5.660;2022-12-24T01:24:01;6.60;99.90
52495;DHT22;38405;53.212;5.660;2022-12-24T01:26:27;6.50;99.90
52495;DHT22;38405;53.212;5.660;2022-12-24T01:28:53;6.60;99.90
52495;DHT22;38405;53.212;5.660;2022-12-24T01:31:18;6.60;99.90
52495;DHT22;38405;53.212;5.660;2022-12-24T01:33:45;6.60;99.90
52495;DHT22;38405;53.212;5.660;2022-12-24T01:36:12;6.60;99.90
52495;DHT22;38405;53.212;5.660;2022-12-24T01:38:38;6.60;99.90
52495;DHT22;38405;53.212;5.660;2022-12-24T01:41:04;6.60;99.90
52495;DHT22;38405;53.212;5.660;2022-12-24T01:43:48;6.50;99.90
52495;DHT22;38405;53.212;5.660;2022-12-24T01:46:29;6.50;99.90
52495;DHT22;38405;53.212;5.660;2022-12-24T01:48:58;6.60;99.90
52495;DHT22;38405;53.212;5.660;2022-12-24T01:51:50;6.60;99.90
52495;DHT22;38405;53.212;5.660;2022-12-24T01:56:52;6.50;99.90
52495;DHT22;38405;53.212;5.660;2022-12-24T01:59:20;6.50;99.90
52495;DHT22;38405;53.212;5.660;2022-12-24T02:01:47;6.60;99.90
52495;DHT22;38405;53.212;5.660;2022-12-24T02:06:51;6.60;99.90
52495;DHT22;38405;53.212;5.660;2022-12-24T02:09:17;6.60;99.90
52495;DHT22;38405;53.212;5.660;2022-12-24T02:11:43;6.60;99.90
52495;DHT22;38405;53.212;5.660;2022-12-24T02:14:09;6.60;99.90
52495;DHT22;38405;53.212;5.660;2022-12-24T02:32:13;7.00;99.90
52495;DHT22;38405;53.212;5.660;2022-12-24T02:40:44;7.30;99.90
52495;DHT22;38405;53.212;5.660;2022-12-24T02:43:15;7.50;99.90
52495;DHT22;38405;53.212;5.660;2022-12-24T02:45:45;7.50;99.90
52495;DHT22;38405;53.212;5.660;2022-12-24T02:48:14;7.60;99.90
52495;DHT22;38405;53.212;5.660;2022-12-24T02:51:00;7.50;99.90
52495;DHT22;38405;53.212;5.660;2022-12-24T02:53:26;7.50;99.90
52495;DHT22;38405;53.212;5.660;2022-12-24T03:04:22;7.40;99.90
52495;DHT22;38405;53.212;5.660;2022-12-24T03:12:18;7.60;99.90
52495;DHT22;38405;53.212;5.660;2022-12-24T03:14:46;7.70;99.90
52495;DHT22;38405;53.212;5.660;2022-12-24T03:17:13;7.90;99.90
52495;DHT22;38405;53.212;5.660;2022-12-24T03:19:39;7.80;99.90
52495;DHT22;38405;53.212;5.660;2022-12-24T03:22:08;7.80;99.90
52495;DHT22;38405;53.212;5.660;2022-12-24T03:24:36;7.80;99.90
52495;DHT22;38405;53.212;5.660;2022-12-24T03:27:03;7.90;99.90
52495;DHT22;38405;53.212;5.660;2022-12-24T03:29:30;7.90;99.90
52495;DHT22;38405;53.212;5.660;2022-12-24T03:32:00;8.00;99.90
52495;DHT22;38405;53.212;5.660;2022-12-24T03:34:26;8.00;99.90
52495;DHT22;38405;53.212;5.660;2022-12-24T03:36:52;8.00;99.90
52495;DHT22;38405;53.212;5.660;2022-12-24T03:39:17;7.90;99.90
52495;DHT22;38405;53.212;5.660;2022-12-24T03:41:43;7.90;99.90
52495;DHT22;38405;53.212;5.660;2022-12-24T03:44:08;7.80;99.90
52495;DHT22;38405;53.212;5.660;2022-12-24T03:46:34;7.80;99.90
52495;DHT22;38405;53.212;5.660;2022-12-24T03:49:00;7.90;99.90
52495;DHT22;38405;53.212;5.660;2022-12-24T03:51:25;7.90;99.90
52495;DHT22;38405;53.212;5.660;2022-12-24T03:53:52;7.90;99.90
52495;DHT22;38405;53.212;5.660;2022-12-24T03:56:18;7.70;99.90
52495;DHT22;38405;53.212;5.660;2022-12-24T03:58:44;7.80;99.90
52495;DHT22;38405;53.212;5.660;2022-12-24T04:01:10;7.70;99.90
52495;DHT22;38405;53.212;5.660;2022-12-24T04:03:35;7.60;99.90
52495;DHT22;38405;53.212;5.660;2022-12-24T04:08:32;7.60;99.90
52495;DHT22;38405;53.212;5.660;2022-12-24T04:10:57;7.60;99.90
52495;DHT22;38405;53.212;5.660;2022-12-24T04:13:23;7.60;99.90
52495;DHT22;38405;53.212;5.660;2022-12-24T04:16:04;7.60;99.90
52495;DHT22;38405;53.212;5.660;2022-12-24T04:18:31;7.60;99.90
52495;DHT22;38405;53.212;5.660;2022-12-24T04:20:57;7.60;99.90
52495;DHT22;38405;53.212;5.660;2022-12-24T04:23:23;7.50;99.90
52495;DHT22;38405;53.212;5.660;2022-12-24T04:25:49;7.50;99.90
52495;DHT22;38405;53.212;5.660;2022-12-24T04:28:15;7.50;99.90
52495;DHT22;38405;53.212;5.660;2022-12-24T04:30:41;7.50;99.90
52495;DHT22;38405;53.212;5.660;2022-12-24T04:33:07;7.50;99.90
52495;DHT22;38405;53.212;5.660;2022-12-24T04:35:33;7.60;99.90
52495;DHT22;38405;53.212;5.660;2022-12-24T04:37:59;7.60;99.90
52495;DHT22;38405;53.212;5.660;2022-12-24T04:40:25;7.50;99.90
52495;DHT22;38405;53.212;5.660;2022-12-24T04:42:50;7.60;99.90
52495;DHT22;38405;53.212;5.660;2022-12-24T04:45:17;7.50;99.90
52495;DHT22;38405;53.212;5.660;2022-12-24T04:47:43;7.50;99.90
52495;DHT22;38405;53.212;5.660;2022-12-24T04:50:09;7.50;99.90
52495;DHT22;38405;53.212;5.660;2022-12-24T04:52:34;7.50;99.90
52495;DHT22;38405;53.212;5.660;2022-12-24T04:55:00;7.50;99.90
52495;DHT22;38405;53.212;5.660;2022-12-24T04:57:26;7.50;99.90
52495;DHT22;38405;53.212;5.660;2022-12-24T04:59:51;7.60;99.90
52495;DHT22;38405;53.212;5.660;2022-12-24T05:02:17;7.60;99.90
52495;DHT22;38405;53.212;5.660;2022-12-24T05:04:42;7.60;99.90
52495;DHT22;38405;53.212;5.660;2022-12-24T05:07:08;7.70;99.90
52495;DHT22;38405;53.212;5.660;2022-12-24T05:09:34;7.60;99.90
52495;DHT22;38405;53.212;5.660;2022-12-24T05:11:59;7.60;99.90
52495;DHT22;38405;53.212;5.660;2022-12-24T05:14:25;7.60;99.90
52495;DHT22;38405;53.212;5.660;2022-12-24T05:16:51;7.60;99.90
52495;DHT22;38405;53.212;5.660;2022-12-24T05:19:16;7.60;99.90
52495;DHT22;38405;53.212;5.660;2022-12-24T05:21:42;7.50;99.90
52495;DHT22;38405;53.212;5.660;2022-12-24T05:24:10;7.50;99.90
52495;DHT22;38405;53.212;5.660;2022-12-24T05:26:56;7.50;99.90
52495;DHT22;38405;53.212;5.660;2022-12-24T05:29:22;7.70;99.90
52495;DHT22;38405;53.212;5.660;2022-12-24T05:31:48;7.40;99.90
52495;DHT22;38405;53.212;5.660;2022-12-24T05:34:15;7.40;99.90
52495;DHT22;38405;53.212;5.660;2022-12-24T05:36:41;7.40;99.90
52495;DHT22;38405;53.212;5.660;2022-12-24T05:39:11;7.40;99.90
52495;DHT22;38405;53.212;5.660;2022-12-24T05:41:38;7.40;99.90
52495;DHT22;38405;53.212;5.660;2022-12-24T05:44:03;7.40;99.90
52495;DHT22;38405;53.212;5.660;2022-12-24T05:46:29;7.40;99.90
52495;DHT22;38405;53.212;5.660;2022-12-24T05:48:54;7.30;99.90
52495;DHT22;38405;53.212;5.660;2022-12-24T05:51:21;7.30;99.90
52495;DHT22;38405;53.212;5.660;2022-12-24T05:53:47;7.20;99.90
52495;DHT22;38405;53.212;5.660;2022-12-24T05:56:19;7.20;99.90
52495;DHT22;38405;53.212;5.660;2022-12-24T05:58:45;7.20;99.90
52495;DHT22;38405;53.212;5.660;2022-12-24T06:01:12;7.10;99.90
52495;DHT22;38405;53.212;5.660;2022-12-24T06:03:38;7.10;99.90
52495;DHT22;38405;53.212;5.660;2022-12-24T06:06:09;7.00;99.90
52495;DHT22;38405;53.212;5.660;2022-12-24T06:08:36;7.00;99.90
52495;DHT22;38405;53.212;5.660;2022-12-24T06:11:05;7.00;99.90
52495;DHT22;38405;53.212;5.660;2022-12-24T06:13:31;6.90;99.90
52495;DHT22;38405;53.212;5.660;2022-12-24T06:15:59;6.90;99.90
52495;DHT22;38405;53.212;5.660;2022-12-24T06:18:25;6.90;99.90
52495;DHT22;38405;53.212;5.660;2022-12-24T06:20:52;6.90;99.90
52495;DHT22;38405;53.212;5.660;2022-12-24T06:23:18;7.00;99.90
52495;DHT22;38405;53.212;5.660;2022-12-24T06:25:45;6.90;99.90
52495;DHT22;38405;53.212;5.660;2022-12-24T06:28:10;6.90;99.90
52495;DHT22;38405;53.212;5.660;2022-12-24T06:30:36;6.80;99.90
52495;DHT22;38405;53.212;5.660;2022-12-24T06:33:01;6.70;99.90
52495;DHT22;38405;53.212;5.660;2022-12-24T06:35:27;6.70;99.90
52495;DHT22;38405;53.212;5.660;2022-12-24T06:37:55;6.70;99.90
52495;DHT22;38405;53.212;5.660;2022-12-24T06:40:20;6.70;99.90
52495;DHT22;38405;53.212;5.660;2022-12-24T06:42:47;6.70;99.90
52495;DHT22;38405;53.212;5.660;2022-12-24T06:45:12;6.70;99.90
52495;DHT22;38405;53.212;5.660;2022-12-24T06:47:38;6.70;99.90
52495;DHT22;38405;53.212;5.660;2022-12-24T06:50:04;6.70;99.90
52495;DHT22;38405;53.212;5.660;2022-12-24T06:52:30;6.70;99.90
52495;DHT22;38405;53.212;5.660;2022-12-24T06:54:55;6.60;99.90
52495;DHT22;38405;53.212;5.660;2022-12-24T06:57:21;6.60;99.90
52495;DHT22;38405;53.212;5.660;2022-12-24T06:59:47;6.50;99.90
52495;DHT22;38405;53.212;5.660;2022-12-24T07:02:12;6.50;99.90
52495;DHT22;38405;53.212;5.660;2022-12-24T07:04:38;6.50;99.90
52495;DHT22;38405;53.212;5.660;2022-12-24T07:07:03;6.40;99.90
52495;DHT22;38405;53.212;5.660;2022-12-24T07:09:30;6.40;99.90
52495;DHT22;38405;53.212;5.660;2022-12-24T07:11:56;6.40;99.90
52495;DHT22;38405;53.212;5.660;2022-12-24T07:14:21;6.50;99.90
52495;DHT22;38405;53.212;5.660;2022-12-24T07:16:47;6.40;99.90
52495;DHT22;38405;53.212;5.660;2022-12-24T07:19:14;6.50;99.90
52495;DHT22;38405;53.212;5.660;2022-12-24T07:21:40;6.50;99.90
52495;DHT22;38405;53.212;5.660;2022-12-24T07:24:05;6.50;99.90
52495;DHT22;38405;53.212;5.660;2022-12-24T07:26:31;6.50;99.90
52495;DHT22;38405;53.212;5.660;2022-12-24T07:28:57;6.50;99.90
52495;DHT22;38405;53.212;5.660;2022-12-24T07:31:23;6.40;99.90
52495;DHT22;38405;53.212;5.660;2022-12-24T07:33:49;6.60;99.90
52495;DHT22;38405;53.212;5.660;2022-12-24T07:36:19;6.30;99.90
52495;DHT22;38405;53.212;5.660;2022-12-24T07:38:45;6.30;99.90
52495;DHT22;38405;53.212;5.660;2022-12-24T07:41:11;6.30;99.90
52495;DHT22;38405;53.212;5.660;2022-12-24T07:43:37;7.30;99.90
52495;DHT22;38405;53.212;5.660;2022-12-24T07:46:03;6.40;99.90
52495;DHT22;38405;53.212;5.660;2022-12-24T07:48:29;6.40;99.90
52495;DHT22;38405;53.212;5.660;2022-12-24T07:50:55;6.50;99.90
52495;DHT22;38405;53.212;5.660;2022-12-24T07:53:21;6.70;99.90
52495;DHT22;38405;53.212;5.660;2022-12-24T07:55:47;6.80;99.90
52495;DHT22;38405;53.212;5.660;2022-12-24T07:58:13;6.80;99.90
52495;DHT22;38405;53.212;5.660;2022-12-24T08:00:38;6.90;99.90
52495;DHT22;38405;53.212;5.660;2022-12-24T08:03:04;7.00;99.90
52495;DHT22;38405;53.212;5.660;2022-12-24T08:05:36;7.10;99.90
52495;DHT22;38405;53.212;5.660;2022-12-24T08:08:02;7.10;99.90
52495;DHT22;38405;53.212;5.660;2022-12-24T08:10:27;7.20;99.90
52495;DHT22;38405;53.212;5.660;2022-12-24T08:12:53;7.30;99.90
52495;DHT22;38405;53.212;5.660;2022-12-24T08:15:18;7.40;99.90
52495;DHT22;38405;53.212;5.660;2022-12-24T08:17:44;7.50;99.90
52495;DHT22;38405;53.212;5.660;2022-12-24T08:20:10;7.60;99.90
52495;DHT22;38405;53.212;5.660;2022-12-24T08:22:36;7.60;99.90
52495;DHT22;38405;53.212;5.660;2022-12-24T08:25:02;7.90;99.90
52495;DHT22;38405;53.212;5.660;2022-12-24T08:27:28;7.80;99.90
52495;DHT22;38405;53.212;5.660;2022-12-24T08:29:54;7.90;99.90
52495;DHT22;38405;53.212;5.660;2022-12-24T08:32:19;7.90;99.90
52495;DHT22;38405;53.212;5.660;2022-12-24T08:34:45;8.00;99.90
52495;DHT22;38405;53.212;5.660;2022-12-24T08:37:10;8.10;99.90
52495;DHT22;38405;53.212;5.660;2022-12-24T08:39:36;8.10;99.90
52495;DHT22;38405;53.212;5.660;2022-12-24T08:42:02;8.10;99.90
52495;DHT22;38405;53.212;5.660;2022-12-24T08:44:27;8.10;99.90
52495;DHT22;38405;53.212;5.660;2022-12-24T08:46:53;8.10;99.90
52495;DHT22;38405;53.212;5.660;2022-12-24T08:49:18;8.30;99.90
52495;DHT22;38405;53.212;5.660;2022-12-24T08:51:44;8.20;99.90
52495;DHT22;38405;53.212;5.660;2022-12-24T08:54:10;8.10;99.90
52495;DHT22;38405;53.212;5.660;2022-12-24T08:56:35;8.10;99.90
52495;DHT22;38405;53.212;5.660;2022-12-24T08:59:01;8.10;99.90
52495;DHT22;38405;53.212;5.660;2022-12-24T09:01:26;8.10;99.90
52495;DHT22;38405;53.212;5.660;2022-12-24T09:03:52;8.10;99.90
52495;DHT22;38405;53.212;5.660;2022-12-24T09:06:18;8.30;99.90
52495;DHT22;38405;53.212;5.660;2022-12-24T09:08:43;8.40;99.90
52495;DHT22;38405;53.212;5.660;2022-12-24T09:11:12;8.50;99.90
52495;DHT22;38405;53.212;5.660;2022-12-24T09:13:39;8.50;99.90
52495;DHT22;38405;53.212;5.660;2022-12-24T09:16:05;8.50;99.90
52495;DHT22;38405;53.212;5.660;2022-12-24T09:18:31;9.10;99.90
52495;DHT22;38405;53.212;5.660;2022-12-24T09:21:02;8.60;99.90
52495;DHT22;38405;53.212;5.660;2022-12-24T09:23:29;8.70;99.90
52495;DHT22;38405;53.212;5.660;2022-12-24T09:25:54;8.70;99.90
52495;DHT22;38405;53.212;5.660;2022-12-24T09:28:20;8.90;99.90
52495;DHT22;38405;53.212;5.660;2022-12-24T09:30:55;8.90;99.90
52495;DHT22;38405;53.212;5.660;2022-12-24T09:33:20;8.90;99.90
52495;DHT22;38405;53.212;5.660;2022-12-24T09:35:50;8.90;99.90
52495;DHT22;38405;53.212;5.660;2022-12-24T09:38:15;8.90;99.90
52495;DHT22;38405;53.212;5.660;2022-12-24T09:40:41;8.90;99.90
52495;DHT22;38405;53.212;5.660;2022-12-24T09:43:19;8.90;99.90
52495;DHT22;38405;53.212;5.660;2022-12-24T09:45:53;8.80;99.90
52495;DHT22;38405;53.212;5.660;2022-12-24T09:48:27;8.80;99.90
52495;DHT22;38405;53.212;5.660;2022-12-24T09:51:05;8.80;99.90
52495;DHT22;38405;53.212;5.660;2022-12-24T09:56:04;8.80;99.90
52495;DHT22;38405;53.212;5.660;2022-12-24T09:58:36;8.80;99.90
52495;DHT22;38405;53.212;5.660;2022-12-24T10:01:03;8.90;99.90
52495;DHT22;38405;53.212;5.660;2022-12-24T10:03:30;8.90;99.90
52495;DHT22;38405;53.212;5.660;2022-12-24T10:06:09;9.00;99.90
52495;DHT22;38405;53.212;5.660;2022-12-24T10:19:51;9.00;99.90
52495;DHT22;38405;53.212;5.660;2022-12-24T10:25:03;9.00;99.90
52495;DHT22;38405;53.212;5.660;2022-12-24T10:27:35;9.00;99.90
52495;DHT22;38405;53.212;5.660;2022-12-24T10:30:11;9.00;99.90
52495;DHT22;38405;53.212;5.660;2022-12-24T10:32:38;9.00;99.90
52495;DHT22;38405;53.212;5.660;2022-12-24T10:37:32;9.00;99.90
52495;DHT22;38405;53.212;5.660;2022-12-24T10:39:59;9.00;99.90
52495;DHT22;38405;53.212;5.660;2022-12-24T10:42:38;8.90;99.90
52495;DHT22;38405;53.212;5.660;2022-12-24T10:45:06;8.90;99.90
52495;DHT22;38405;53.212;5.660;2022-12-24T10:47:37;8.90;99.90
52495;DHT22;38405;53.212;5.660;2022-12-24T10:50:38;8.90;99.90
52495;DHT22;38405;53.212;5.660;2022-12-24T10:53:20;9.00;99.90
52495;DHT22;38405;53.212;5.660;2022-12-24T10:55:47;8.90;99.90
52495;DHT22;38405;53.212;5.660;2022-12-24T10:58:18;8.90;99.90
52495;DHT22;38405;53.212;5.660;2022-12-24T11:00:53;9.00;99.90
52495;DHT22;38405;53.212;5.660;2022-12-24T11:03:22;9.00;99.90
52495;DHT22;38405;53.212;5.660;2022-12-24T11:06:00;9.00;99.90
52495;DHT22;38405;53.212;5.660;2022-12-24T11:08:26;9.00;99.90
52495;DHT22;38405;53.212;5.660;2022-12-24T11:11:01;9.00;99.90
52495;DHT22;38405;53.212;5.660;2022-12-24T11:13:38;9.00;99.90
52495;DHT22;38405;53.212;5.660;2022-12-24T11:18:42;9.00;99.90
52495;DHT22;38405;53.212;5.660;2022-12-24T11:21:08;9.00;99.90
52495;DHT22;38405;53.212;5.660;2022-12-24T11:23:34;9.00;99.90
52495;DHT22;38405;53.212;5.660;2022-12-24T11:26:00;9.00;99.90
52495;DHT22;38405;53.212;5.660;2022-12-24T11:28:30;9.00;99.90
52495;DHT22;38405;53.212;5.660;2022-12-24T11:31:24;9.00;99.90
52495;DHT22;38405;53.212;5.660;2022-12-24T11:33:51;8.90;99.90
52495;DHT22;38405;53.212;5.660;2022-12-24T11:36:22;8.90;99.90
52495;DHT22;38405;53.212;5.660;2022-12-24T11:38:52;8.90;99.90
52495;DHT22;38405;53.212;5.660;2022-12-24T11:41:19;8.80;99.90
52495;DHT22;38405;53.212;5.660;2022-12-24T11:43:46;8.80;99.90
52495;DHT22;38405;53.212;5.660;2022-12-24T11:46:42;8.80;99.90
52495;DHT22;38405;53.212;5.660;2022-12-24T11:49:27;8.80;99.90
52495;DHT22;38405;53.212;5.660;2022-12-24T11:58:02;8.90;99.90
52495;DHT22;38405;53.212;5.660;2022-12-24T12:00:30;8.90;99.90
52495;DHT22;38405;53.212;5.660;2022-12-24T12:02:58;8.90;99.90
52495;DHT22;38405;53.212;5.660;2022-12-24T12:05:31;8.90;99.90
52495;DHT22;38405;53.212;5.660;2022-12-24T12:08:09;8.90;99.90
52495;DHT22;38405;53.212;5.660;2022-12-24T12:10:39;8.90;99.90
52495;DHT22;38405;53.212;5.660;2022-12-24T12:13:12;9.00;99.90
52495;DHT22;38405;53.212;5.660;2022-12-24T12:18:41;9.00;99.90
52495;DHT22;38405;53.212;5.660;2022-12-24T12:21:16;9.00;99.90
52495;DHT22;38405;53.212;5.660;2022-12-24T12:23:50;8.90;99.90
52495;DHT22;38405;53.212;5.660;2022-12-24T12:26:28;8.90;99.90
52495;DHT22;38405;53.212;5.660;2022-12-24T12:28:58;8.90;99.90
52495;DHT22;38405;53.212;5.660;2022-12-24T12:31:30;8.90;99.90
52495;DHT22;38405;53.212;5.660;2022-12-24T12:34:16;8.80;99.90
52495;DHT22;38405;53.212;5.660;2022-12-24T12:36:48;8.90;99.90
52495;DHT22;38405;53.212;5.660;2022-12-24T12:39:15;9.00;99.90
52495;DHT22;38405;53.212;5.660;2022-12-24T12:41:54;8.80;99.90
52495;DHT22;38405;53.212;5.660;2022-12-24T12:44:39;8.80;99.90
52495;DHT22;38405;53.212;5.660;2022-12-24T12:48:13;8.80;99.90
52495;DHT22;38405;53.212;5.660;2022-12-24T12:50:17;8.70;99.90
52495;DHT22;38405;53.212;5.660;2022-12-24T12:55:44;8.80;99.90
52495;DHT22;38405;53.212;5.660;2022-12-24T12:58:21;8.80;99.90
52495;DHT22;38405;53.212;5.660;2022-12-24T13:00:52;8.80;99.90
52495;DHT22;38405;53.212;5.660;2022-12-24T13:09:20;8.60;99.90
52495;DHT22;38405;53.212;5.660;2022-12-24T13:18:10;8.40;99.90
52495;DHT22;38405;53.212;5.660;2022-12-24T13:20:46;8.40;99.90
52495;DHT22;38405;53.212;5.660;2022-12-24T13:23:18;8.40;99.90
52495;DHT22;38405;53.212;5.660;2022-12-24T13:25:50;8.40;99.90
52495;DHT22;38405;53.212;5.660;2022-12-24T13:30:46;8.30;99.90
52495;DHT22;38405;53.212;5.660;2022-12-24T13:33:44;8.30;99.90
52495;DHT22;38405;53.212;5.660;2022-12-24T13:36:06;8.20;99.90
52495;DHT22;38405;53.212;5.660;2022-12-24T13:44:14;8.10;99.90
52495;DHT22;38405;53.212;5.660;2022-12-24T13:47:03;8.10;99.90
52495;DHT22;38405;53.212;5.660;2022-12-24T13:49:36;8.10;99.90
52495;DHT22;38405;53.212;5.660;2022-12-24T13:55:02;8.00;99.90
52495;DHT22;38405;53.212;5.660;2022-12-24T13:57:38;8.00;99.90
52495;DHT22;38405;53.212;5.660;2022-12-24T14:00:06;7.90;99.90
52495;DHT22;38405;53.212;5.660;2022-12-24T14:05:36;7.80;99.90
52495;DHT22;38405;53.212;5.660;2022-12-24T14:08:07;7.70;99.90
52495;DHT22;38405;53.212;5.660;2022-12-24T14:10:38;7.70;99.90
52495;DHT22;38405;53.212;5.660;2022-12-24T14:13:05;7.70;99.90
52495;DHT22;38405;53.212;5.660;2022-12-24T14:18:16;7.50;99.90
52495;DHT22;38405;53.212;5.660;2022-12-24T14:20:42;7.40;99.90
52495;DHT22;38405;53.212;5.660;2022-12-24T14:23:27;7.30;99.90
52495;DHT22;38405;53.212;5.660;2022-12-24T14:25:56;7.30;99.90
52495;DHT22;38405;53.212;5.660;2022-12-24T14:28:27;7.30;99.90
52495;DHT22;38405;53.212;5.660;2022-12-24T14:31:02;7.20;99.90
52495;DHT22;38405;53.212;5.660;2022-12-24T14:33:33;7.10;99.90
52495;DHT22;38405;53.212;5.660;2022-12-24T14:35:59;7.20;99.90
52495;DHT22;38405;53.212;5.660;2022-12-24T14:38:27;7.00;99.90
52495;DHT22;38405;53.212;5.660;2022-12-24T14:41:04;7.00;99.90
52495;DHT22;38405;53.212;5.660;2022-12-24T14:46:47;6.80;99.90
52495;DHT22;38405;53.212;5.660;2022-12-24T14:52:14;6.70;99.90
52495;DHT22;38405;53.212;5.660;2022-12-24T14:54:43;6.70;99.90
52495;DHT22;38405;53.212;5.660;2022-12-24T15:05:27;6.50;99.90
52495;DHT22;38405;53.212;5.660;2022-12-24T15:10:32;6.50;99.90
52495;DHT22;38405;53.212;5.660;2022-12-24T15:13:05;6.60;99.90
52495;DHT22;38405;53.212;5.660;2022-12-24T15:15:32;6.60;99.90
52495;DHT22;38405;53.212;5.660;2022-12-24T15:17:58;6.50;99.90
52495;DHT22;38405;53.212;5.660;2022-12-24T15:20:26;6.50;99.90
52495;DHT22;38405;53.212;5.660;2022-12-24T15:22:55;6.50;99.90
52495;DHT22;38405;53.212;5.660;2022-12-24T15:27:49;6.50;99.90
52495;DHT22;38405;53.212;5.660;2022-12-24T15:30:22;6.50;99.90
52495;DHT22;38405;53.212;5.660;2022-12-24T15:32:56;6.40;99.90
52495;DHT22;38405;53.212;5.660;2022-12-24T15:35:42;6.90;99.90
52495;DHT22;38405;53.212;5.660;2022-12-24T15:38:25;6.80;99.90
52495;DHT22;38405;53.212;5.660;2022-12-24T15:40:51;6.30;99.90
52495;DHT22;38405;53.212;5.660;2022-12-24T15:43:18;6.40;99.90
52495;DHT22;38405;53.212;5.660;2022-12-24T15:45:45;6.40;99.90
52495;DHT22;38405;53.212;5.660;2022-12-24T15:48:26;6.40;99.90
52495;DHT22;38405;53.212;5.660;2022-12-24T15:50:59;6.30;99.90
52495;DHT22;38405;53.212;5.660;2022-12-24T15:53:36;6.30;99.90
52495;DHT22;38405;53.212;5.660;2022-12-24T15:58:45;6.20;99.90
52495;DHT22;38405;53.212;5.660;2022-12-24T16:03:59;6.80;99.90
52495;DHT22;38405;53.212;5.660;2022-12-24T16:06:26;6.00;99.90
52495;DHT22;38405;53.212;5.660;2022-12-24T16:08:53;6.00;99.90
52495;DHT22;38405;53.212;5.660;2022-12-24T16:11:25;6.30;99.90
52495;DHT22;38405;53.212;5.660;2022-12-24T16:14:02;6.00;99.90
52495;DHT22;38405;53.212;5.660;2022-12-24T16:16:33;5.70;99.90
52495;DHT22;38405;53.212;5.660;2022-12-24T16:19:00;5.70;99.90
52495;DHT22;38405;53.212;5.660;2022-12-24T16:23:57;5.70;99.90
52495;DHT22;38405;53.212;5.660;2022-12-24T16:26:31;5.60;99.90
52495;DHT22;38405;53.212;5.660;2022-12-24T16:28:57;5.50;99.90
52495;DHT22;38405;53.212;5.660;2022-12-24T16:31:36;5.60;99.90
52495;DHT22;38405;53.212;5.660;2022-12-24T16:34:02;5.50;99.90
52495;DHT22;38405;53.212;5.660;2022-12-24T16:36:28;5.40;99.90
52495;DHT22;38405;53.212;5.660;2022-12-24T16:38:56;5.40;99.90
52495;DHT22;38405;53.212;5.660;2022-12-24T16:41:41;5.30;99.90
52495;DHT22;38405;53.212;5.660;2022-12-24T16:44:24;5.30;99.90
52495;DHT22;38405;53.212;5.660;2022-12-24T16:46:52;5.60;99.90
52495;DHT22;38405;53.212;5.660;2022-12-24T16:49:19;5.30;99.90
52495;DHT22;38405;53.212;5.660;2022-12-24T16:51:45;5.30;99.90
52495;DHT22;38405;53.212;5.660;2022-12-24T16:54:13;5.20;99.90
52495;DHT22;38405;53.212;5.660;2022-12-24T16:56:39;5.20;99.90
52495;DHT22;38405;53.212;5.660;2022-12-24T16:59:05;5.20;99.90
52495;DHT22;38405;53.212;5.660;2022-12-24T17:01:31;5.40;99.90
52495;DHT22;38405;53.212;5.660;2022-12-24T17:03:57;5.10;99.90
52495;DHT22;38405;53.212;5.660;2022-12-24T17:06:22;5.20;99.90
52495;DHT22;38405;53.212;5.660;2022-12-24T17:08:48;5.00;99.90
52495;DHT22;38405;53.212;5.660;2022-12-24T17:11:14;5.00;99.90
52495;DHT22;38405;53.212;5.660;2022-12-24T17:13:39;5.00;99.90
52495;DHT22;38405;53.212;5.660;2022-12-24T17:16:05;4.90;99.90
52495;DHT22;38405;53.212;5.660;2022-12-24T17:18:31;4.80;99.90
52495;DHT22;38405;53.212;5.660;2022-12-24T17:21:01;4.90;99.90
52495;DHT22;38405;53.212;5.660;2022-12-24T17:23:28;4.50;99.90
52495;DHT22;38405;53.212;5.660;2022-12-24T17:25:54;4.40;99.90
52495;DHT22;38405;53.212;5.660;2022-12-24T17:28:20;4.30;99.90
52495;DHT22;38405;53.212;5.660;2022-12-24T17:30:46;4.30;99.90
52495;DHT22;38405;53.212;5.660;2022-12-24T17:33:11;4.20;99.90
52495;DHT22;38405;53.212;5.660;2022-12-24T17:35:41;4.10;99.90
52495;DHT22;38405;53.212;5.660;2022-12-24T17:38:09;4.10;99.90
52495;DHT22;38405;53.212;5.660;2022-12-24T17:40:35;4.10;99.90
52495;DHT22;38405;53.212;5.660;2022-12-24T17:43:01;4.00;99.90
52495;DHT22;38405;53.212;5.660;2022-12-24T17:45:26;4.10;99.90
52495;DHT22;38405;53.212;5.660;2022-12-24T17:47:52;4.10;99.90
52495;DHT22;38405;53.212;5.660;2022-12-24T17:50:18;4.10;99.90
52495;DHT22;38405;53.212;5.660;2022-12-24T17:52:43;4.20;99.90
52495;DHT22;38405;53.212;5.660;2022-12-24T17:55:09;4.30;99.90
52495;DHT22;38405;53.212;5.660;2022-12-24T17:57:34;4.30;99.90
52495;DHT22;38405;53.212;5.660;2022-12-24T18:00:00;4.40;99.90
52495;DHT22;38405;53.212;5.660;2022-12-24T18:02:26;4.60;99.90
52495;DHT22;38405;53.212;5.660;2022-12-24T18:04:51;4.70;99.90
52495;DHT22;38405;53.212;5.660;2022-12-24T18:07:17;4.80;99.90